sensor_id;sensor_type;location;lat;lon;timestamp;P1;durP1;ratioP1;P2;durP2;ratioP2
21103;SDS011;10710;53.398;-1.514;2023-01-13T00:02:24;9.63;;;1.63;;
21103;SDS011;10710;53.398;-1.514;2023-01-13T00:04:50;10.90;;;1.13;;
21103;SDS011;10710;53.398;-1.514;2023-01-13T00:07:15;6.03;;;1.67;;
21103;SDS011;10710;53.398;-1.514;2023-01-13T00:09:41;8.65;;;1.50;;
21103;SDS011;10710;53.398;-1.514;2023-01-13T00:12:07;9.45;;;1.20;;
21103;SDS011;10710;53.398;-1.514;2023-01-13T00:14:34;7.50;;;1.23;;
21103;SDS011;10710;53.398;-1.514;2023-01-13T00:17:01;6.47;;;1.40;;
21103;SDS011;10710;53.398;-1.514;2023-01-13T00:19:27;8.73;;;1.45;;
21103;SDS011;10710;53.398;-1.514;2023-01-13T00:21:53;5.85;;;1.00;;
21103;SDS011;10710;53.398;-1.514;2023-01-13T00:24:18;5.70;;;1.20;;
21103;SDS011;10710;53.398;-1.514;2023-01-13T00:26:44;4.40;;;0.90;;
21103;SDS011;10710;53.398;-1.514;2023-01-13T00:29:10;9.13;;;1.20;;
21103;SDS011;10710;53.398;-1.514;2023-01-13T00:31:36;7.00;;;1.17;;
21103;SDS011;10710;53.398;-1.514;2023-01-13T00:34:02;3.63;;;1.33;;
21103;SDS011;10710;53.398;-1.514;2023-01-13T00:36:28;6.28;;;1.42;;
21103;SDS011;10710;53.398;-1.514;2023-01-13T00:38:55;4.05;;;1.58;;
21103;SDS011;10710;53.398;-1.514;2023-01-13T00:41:22;4.88;;;1.00;;
21103;SDS011;10710;53.398;-1.514;2023-01-13T00:43:49;5.05;;;1.15;;
21103;SDS011;10710;53.398;-1.514;2023-01-13T00:46:16;5.77;;;1.00;;
21103;SDS011;10710;53.398;-1.514;2023-01-13T00:48:43;3.75;;;0.73;;
21103;SDS011;10710;53.398;-1.514;2023-01-13T00:51:10;3.35;;;0.95;;
21103;SDS011;10710;53.398;-1.514;2023-01-13T00:53:39;6.50;;;1.15;;
21103;SDS011;10710;53.398;-1.514;2023-01-13T00:56:11;5.40;;;0.90;;
21103;SDS011;10710;53.398;-1.514;2023-01-13T00:58:38;6.55;;;0.70;;
21103;SDS011;10710;53.398;-1.514;2023-01-13T01:01:06;3.00;;;0.73;;
21103;SDS011;10710;53.398;-1.514;2023-01-13T01:03:38;4.78;;;1.05;;
21103;SDS011;10710;53.398;-1.514;2023-01-13T01:06:06;5.88;;;0.98;;
21103;SDS011;10710;53.398;-1.514;2023-01-13T01:08:35;3.67;;;1.40;;
21103;SDS011;10710;53.398;-1.514;2023-01-13T01:11:04;1.80;;;1.30;;
21103;SDS011;10710;53.398;-1.514;2023-01-13T01:13:35;7.35;;;1.40;;
21103;SDS011;10710;53.398;-1.514;2023-01-13T01:16:13;3.80;;;1.05;;
21103;SDS011;10710;53.398;-1.514;2023-01-13T01:18:41;6.55;;;0.93;;
21103;SDS011;10710;53.398;-1.514;2023-01-13T01:21:08;8.07;;;1.73;;
21103;SDS011;10710;53.398;-1.514;2023-01-13T01:23:35;9.90;;;1.90;;
21103;SDS011;10710;53.398;-1.514;2023-01-13T01:26:02;6.20;;;1.45;;
21103;SDS011;10710;53.398;-1.514;2023-01-13T01:28:31;4.57;;;1.10;;
21103;SDS011;10710;53.398;-1.514;2023-01-13T01:30:57;5.53;;;1.17;;
21103;SDS011;10710;53.398;-1.514;2023-01-13T01:33:24;3.22;;;0.90;;
21103;SDS011;10710;53.398;-1.514;2023-01-13T01:35:52;2.72;;;1.02;;
21103;SDS011;10710;53.398;-1.514;2023-01-13T01:38:19;8.30;;;1.55;;
21103;SDS011;10710;53.398;-1.514;2023-01-13T01:40:47;14.38;;;1.27;;
21103;SDS011;10710;53.398;-1.514;2023-01-13T01:43:14;2.05;;;0.68;;
21103;SDS011;10710;53.398;-1.514;2023-01-13T01:46:00;8.02;;;1.50;;
21103;SDS011;10710;53.398;-1.514;2023-01-13T01:48:31;7.32;;;1.05;;
21103;SDS011;10710;53.398;-1.514;2023-01-13T01:51:05;7.82;;;1.30;;
21103;SDS011;10710;53.398;-1.514;2023-01-13T01:53:36;5.43;;;1.00;;
21103;SDS011;10710;53.398;-1.514;2023-01-13T01:56:03;10.40;;;1.55;;
21103;SDS011;10710;53.398;-1.514;2023-01-13T01:58:48;6.80;;;1.40;;
21103;SDS011;10710;53.398;-1.514;2023-01-13T02:01:16;3.75;;;0.93;;
21103;SDS011;10710;53.398;-1.514;2023-01-13T02:03:44;7.63;;;2.10;;
21103;SDS011;10710;53.398;-1.514;2023-01-13T02:06:16;7.65;;;1.60;;
21103;SDS011;10710;53.398;-1.514;2023-01-13T02:08:43;7.53;;;1.57;;
21103;SDS011;10710;53.398;-1.514;2023-01-13T02:11:29;6.18;;;1.13;;
21103;SDS011;10710;53.398;-1.514;2023-01-13T02:14:15;7.97;;;1.42;;
21103;SDS011;10710;53.398;-1.514;2023-01-13T02:16:44;5.38;;;1.02;;
21103;SDS011;10710;53.398;-1.514;2023-01-13T02:28:05;4.45;;;1.17;;
21103;SDS011;10710;53.398;-1.514;2023-01-13T02:31:05;2.67;;;0.60;;
21103;SDS011;10710;53.398;-1.514;2023-01-13T02:36:38;7.30;;;0.90;;
21103;SDS011;10710;53.398;-1.514;2023-01-13T02:39:24;1.65;;;0.88;;
21103;SDS011;10710;53.398;-1.514;2023-01-13T02:42:12;6.07;;;1.20;;
21103;SDS011;10710;53.398;-1.514;2023-01-13T02:45:45;9.93;;;1.70;;
21103;SDS011;10710;53.398;-1.514;2023-01-13T02:47:53;7.43;;;1.48;;
21103;SDS011;10710;53.398;-1.514;2023-01-13T02:50:31;6.35;;;1.88;;
21103;SDS011;10710;53.398;-1.514;2023-01-13T02:53:13;4.65;;;0.95;;
21103;SDS011;10710;53.398;-1.514;2023-01-13T02:55:58;4.85;;;1.10;;
21103;SDS011;10710;53.398;-1.514;2023-01-13T02:58:28;2.10;;;0.93;;
21103;SDS011;10710;53.398;-1.514;2023-01-13T03:00:56;4.55;;;0.65;;
21103;SDS011;10710;53.398;-1.514;2023-01-13T03:03:22;2.35;;;0.70;;
21103;SDS011;10710;53.398;-1.514;2023-01-13T03:05:49;9.30;;;1.52;;
21103;SDS011;10710;53.398;-1.514;2023-01-13T03:11:00;7.22;;;0.93;;
21103;SDS011;10710;53.398;-1.514;2023-01-13T03:24:00;4.18;;;0.93;;
21103;SDS011;10710;53.398;-1.514;2023-01-13T03:26:37;6.27;;;0.93;;
21103;SDS011;10710;53.398;-1.514;2023-01-13T03:29:30;8.15;;;1.45;;
21103;SDS011;10710;53.398;-1.514;2023-01-13T03:32:15;5.45;;;1.65;;
21103;SDS011;10710;53.398;-1.514;2023-01-13T03:34:50;1.35;;;0.50;;
21103;SDS011;10710;53.398;-1.514;2023-01-13T03:37:20;4.10;;;1.30;;
21103;SDS011;10710;53.398;-1.514;2023-01-13T03:39:51;4.95;;;0.80;;
21103;SDS011;10710;53.398;-1.514;2023-01-13T03:42:23;8.18;;;1.60;;
21103;SDS011;10710;53.398;-1.514;2023-01-13T03:47:50;3.80;;;1.00;;
21103;SDS011;10710;53.398;-1.514;2023-01-13T03:50:21;6.30;;;1.03;;
21103;SDS011;10710;53.398;-1.514;2023-01-13T03:52:56;3.05;;;1.17;;
21103;SDS011;10710;53.398;-1.514;2023-01-13T03:55:31;5.15;;;0.95;;
21103;SDS011;10710;53.398;-1.514;2023-01-13T03:58:02;5.57;;;1.20;;
21103;SDS011;10710;53.398;-1.514;2023-01-13T04:00:54;7.20;;;1.15;;
21103;SDS011;10710;53.398;-1.514;2023-01-13T04:06:24;7.30;;;1.45;;
21103;SDS011;10710;53.398;-1.514;2023-01-13T04:08:54;7.53;;;1.77;;
21103;SDS011;10710;53.398;-1.514;2023-01-13T04:11:31;6.00;;;1.65;;
21103;SDS011;10710;53.398;-1.514;2023-01-13T04:14:03;8.30;;;1.25;;
21103;SDS011;10710;53.398;-1.514;2023-01-13T04:16:32;7.90;;;1.13;;
21103;SDS011;10710;53.398;-1.514;2023-01-13T04:18:58;5.78;;;1.25;;
21103;SDS011;10710;53.398;-1.514;2023-01-13T04:21:24;13.35;;;1.50;;
21103;SDS011;10710;53.398;-1.514;2023-01-13T04:23:50;6.72;;;1.13;;
21103;SDS011;10710;53.398;-1.514;2023-01-13T04:26:16;3.70;;;0.98;;
21103;SDS011;10710;53.398;-1.514;2023-01-13T04:28:44;2.72;;;1.20;;
21103;SDS011;10710;53.398;-1.514;2023-01-13T04:31:10;4.00;;;1.30;;
21103;SDS011;10710;53.398;-1.514;2023-01-13T04:33:36;3.03;;;1.23;;
21103;SDS011;10710;53.398;-1.514;2023-01-13T04:36:02;2.15;;;0.93;;
21103;SDS011;10710;53.398;-1.514;2023-01-13T04:38:28;3.08;;;0.88;;
21103;SDS011;10710;53.398;-1.514;2023-01-13T04:40:54;4.50;;;0.85;;
21103;SDS011;10710;53.398;-1.514;2023-01-13T04:43:20;0.57;;;0.57;;
21103;SDS011;10710;53.398;-1.514;2023-01-13T04:45:45;7.23;;;1.17;;
21103;SDS011;10710;53.398;-1.514;2023-01-13T04:48:11;4.57;;;1.07;;
21103;SDS011;10710;53.398;-1.514;2023-01-13T04:50:37;10.02;;;0.82;;
21103;SDS011;10710;53.398;-1.514;2023-01-13T04:53:04;4.70;;;0.90;;
21103;SDS011;10710;53.398;-1.514;2023-01-13T04:55:30;3.75;;;0.77;;
21103;SDS011;10710;53.398;-1.514;2023-01-13T04:58:00;5.30;;;0.90;;
21103;SDS011;10710;53.398;-1.514;2023-01-13T05:00:27;7.32;;;1.33;;
21103;SDS011;10710;53.398;-1.514;2023-01-13T05:02:53;3.47;;;1.17;;
21103;SDS011;10710;53.398;-1.514;2023-01-13T05:05:19;2.17;;;0.88;;
21103;SDS011;10710;53.398;-1.514;2023-01-13T05:07:45;2.80;;;1.03;;
21103;SDS011;10710;53.398;-1.514;2023-01-13T05:10:11;5.37;;;0.80;;
21103;SDS011;10710;53.398;-1.514;2023-01-13T05:12:37;7.03;;;1.00;;
21103;SDS011;10710;53.398;-1.514;2023-01-13T05:15:22;3.10;;;0.70;;
21103;SDS011;10710;53.398;-1.514;2023-01-13T05:18:06;4.35;;;1.25;;
21103;SDS011;10710;53.398;-1.514;2023-01-13T05:20:33;2.90;;;1.30;;
21103;SDS011;10710;53.398;-1.514;2023-01-13T05:22:58;4.63;;;0.60;;
21103;SDS011;10710;53.398;-1.514;2023-01-13T05:25:42;5.43;;;0.90;;
21103;SDS011;10710;53.398;-1.514;2023-01-13T05:28:10;4.53;;;0.88;;
21103;SDS011;10710;53.398;-1.514;2023-01-13T05:30:38;2.03;;;0.60;;
21103;SDS011;10710;53.398;-1.514;2023-01-13T05:33:10;7.57;;;1.03;;
21103;SDS011;10710;53.398;-1.514;2023-01-13T05:35:42;4.05;;;1.00;;
21103;SDS011;10710;53.398;-1.514;2023-01-13T05:38:10;3.80;;;1.10;;
21103;SDS011;10710;53.398;-1.514;2023-01-13T05:40:36;6.32;;;0.82;;
21103;SDS011;10710;53.398;-1.514;2023-01-13T05:43:23;2.63;;;0.80;;
21103;SDS011;10710;53.398;-1.514;2023-01-13T05:46:02;4.07;;;1.20;;
21103;SDS011;10710;53.398;-1.514;2023-01-13T05:48:42;3.20;;;0.63;;
21103;SDS011;10710;53.398;-1.514;2023-01-13T05:51:09;5.13;;;0.80;;
21103;SDS011;10710;53.398;-1.514;2023-01-13T05:53:36;1.20;;;0.50;;
21103;SDS011;10710;53.398;-1.514;2023-01-13T05:56:02;1.70;;;0.90;;
21103;SDS011;10710;53.398;-1.514;2023-01-13T05:58:29;5.60;;;0.60;;
21103;SDS011;10710;53.398;-1.514;2023-01-13T06:00:58;2.10;;;0.60;;
21103;SDS011;10710;53.398;-1.514;2023-01-13T06:03:25;5.00;;;0.80;;
21103;SDS011;10710;53.398;-1.514;2023-01-13T06:05:51;4.15;;;1.05;;
21103;SDS011;10710;53.398;-1.514;2023-01-13T06:08:22;3.63;;;1.40;;
21103;SDS011;10710;53.398;-1.514;2023-01-13T06:10:48;4.03;;;1.00;;
21103;SDS011;10710;53.398;-1.514;2023-01-13T06:13:14;5.03;;;0.80;;
21103;SDS011;10710;53.398;-1.514;2023-01-13T06:15:41;4.00;;;0.80;;
21103;SDS011;10710;53.398;-1.514;2023-01-13T06:18:07;1.90;;;0.57;;
21103;SDS011;10710;53.398;-1.514;2023-01-13T06:20:32;4.00;;;1.07;;
21103;SDS011;10710;53.398;-1.514;2023-01-13T06:22:58;8.97;;;1.30;;
21103;SDS011;10710;53.398;-1.514;2023-01-13T06:28:10;5.75;;;1.00;;
21103;SDS011;10710;53.398;-1.514;2023-01-13T06:30:37;5.75;;;1.17;;
21103;SDS011;10710;53.398;-1.514;2023-01-13T06:33:11;4.95;;;0.80;;
21103;SDS011;10710;53.398;-1.514;2023-01-13T06:35:41;3.25;;;0.60;;
21103;SDS011;10710;53.398;-1.514;2023-01-13T06:38:11;1.88;;;0.65;;
21103;SDS011;10710;53.398;-1.514;2023-01-13T06:40:40;2.42;;;0.80;;
21103;SDS011;10710;53.398;-1.514;2023-01-13T06:43:07;3.90;;;0.60;;
21103;SDS011;10710;53.398;-1.514;2023-01-13T06:45:53;4.30;;;0.53;;
21103;SDS011;10710;53.398;-1.514;2023-01-13T06:48:24;7.38;;;0.80;;
21103;SDS011;10710;53.398;-1.514;2023-01-13T06:50:52;1.70;;;0.40;;
21103;SDS011;10710;53.398;-1.514;2023-01-13T06:53:18;3.20;;;0.55;;
21103;SDS011;10710;53.398;-1.514;2023-01-13T06:55:44;1.85;;;0.47;;
21103;SDS011;10710;53.398;-1.514;2023-01-13T06:58:10;5.75;;;0.75;;
21103;SDS011;10710;53.398;-1.514;2023-01-13T07:00:36;9.98;;;1.20;;
21103;SDS011;10710;53.398;-1.514;2023-01-13T07:05:35;6.20;;;1.02;;
21103;SDS011;10710;53.398;-1.514;2023-01-13T07:08:02;4.53;;;0.80;;
21103;SDS011;10710;53.398;-1.514;2023-01-13T07:10:28;3.30;;;0.57;;
21103;SDS011;10710;53.398;-1.514;2023-01-13T07:12:58;3.70;;;0.90;;
21103;SDS011;10710;53.398;-1.514;2023-01-13T07:15:56;3.25;;;0.95;;
21103;SDS011;10710;53.398;-1.514;2023-01-13T07:18:24;1.30;;;0.80;;
21103;SDS011;10710;53.398;-1.514;2023-01-13T07:20:54;5.15;;;1.10;;
21103;SDS011;10710;53.398;-1.514;2023-01-13T07:23:21;2.00;;;1.10;;
21103;SDS011;10710;53.398;-1.514;2023-01-13T07:25:47;4.53;;;0.70;;
21103;SDS011;10710;53.398;-1.514;2023-01-13T07:28:13;4.32;;;0.90;;
21103;SDS011;10710;53.398;-1.514;2023-01-13T07:30:39;4.07;;;0.60;;
21103;SDS011;10710;53.398;-1.514;2023-01-13T07:33:05;4.30;;;0.63;;
21103;SDS011;10710;53.398;-1.514;2023-01-13T07:35:32;5.47;;;1.10;;
21103;SDS011;10710;53.398;-1.514;2023-01-13T07:37:58;4.32;;;0.75;;
21103;SDS011;10710;53.398;-1.514;2023-01-13T07:40:24;3.00;;;0.70;;
21103;SDS011;10710;53.398;-1.514;2023-01-13T07:42:49;4.47;;;0.87;;
21103;SDS011;10710;53.398;-1.514;2023-01-13T07:45:34;6.47;;;1.63;;
21103;SDS011;10710;53.398;-1.514;2023-01-13T07:48:00;12.45;;;2.85;;
21103;SDS011;10710;53.398;-1.514;2023-01-13T07:50:25;4.60;;;0.73;;
21103;SDS011;10710;53.398;-1.514;2023-01-13T07:52:51;6.35;;;1.05;;
21103;SDS011;10710;53.398;-1.514;2023-01-13T07:55:17;5.72;;;1.00;;
21103;SDS011;10710;53.398;-1.514;2023-01-13T07:57:43;6.35;;;1.20;;
21103;SDS011;10710;53.398;-1.514;2023-01-13T08:00:09;8.70;;;1.23;;
21103;SDS011;10710;53.398;-1.514;2023-01-13T08:02:37;4.18;;;0.70;;
21103;SDS011;10710;53.398;-1.514;2023-01-13T08:05:02;4.33;;;0.73;;
21103;SDS011;10710;53.398;-1.514;2023-01-13T08:07:29;4.30;;;1.15;;
21103;SDS011;10710;53.398;-1.514;2023-01-13T08:09:54;2.60;;;1.00;;
21103;SDS011;10710;53.398;-1.514;2023-01-13T08:12:20;3.03;;;0.80;;
21103;SDS011;10710;53.398;-1.514;2023-01-13T08:15:05;3.93;;;1.17;;
21103;SDS011;10710;53.398;-1.514;2023-01-13T08:17:34;4.65;;;0.95;;
21103;SDS011;10710;53.398;-1.514;2023-01-13T08:20:02;6.50;;;0.95;;
21103;SDS011;10710;53.398;-1.514;2023-01-13T08:22:28;3.70;;;0.70;;
21103;SDS011;10710;53.398;-1.514;2023-01-13T08:24:58;2.60;;;0.60;;
21103;SDS011;10710;53.398;-1.514;2023-01-13T08:27:25;3.83;;;1.15;;
21103;SDS011;10710;53.398;-1.514;2023-01-13T08:29:50;6.77;;;1.00;;
21103;SDS011;10710;53.398;-1.514;2023-01-13T08:32:16;11.70;;;1.33;;
21103;SDS011;10710;53.398;-1.514;2023-01-13T08:34:42;11.37;;;1.20;;
21103;SDS011;10710;53.398;-1.514;2023-01-13T08:37:08;5.85;;;0.82;;
21103;SDS011;10710;53.398;-1.514;2023-01-13T08:39:33;7.95;;;0.85;;
21103;SDS011;10710;53.398;-1.514;2023-01-13T08:42:02;3.40;;;0.65;;
21103;SDS011;10710;53.398;-1.514;2023-01-13T08:44:29;3.88;;;0.80;;
21103;SDS011;10710;53.398;-1.514;2023-01-13T08:46:55;1.10;;;0.50;;
21103;SDS011;10710;53.398;-1.514;2023-01-13T08:49:22;2.63;;;0.43;;
21103;SDS011;10710;53.398;-1.514;2023-01-13T08:51:49;1.30;;;0.50;;
21103;SDS011;10710;53.398;-1.514;2023-01-13T08:54:16;1.15;;;0.30;;
21103;SDS011;10710;53.398;-1.514;2023-01-13T08:56:43;4.95;;;0.50;;
21103;SDS011;10710;53.398;-1.514;2023-01-13T08:59:18;5.50;;;0.53;;
21103;SDS011;10710;53.398;-1.514;2023-01-13T09:01:44;1.85;;;0.65;;
21103;SDS011;10710;53.398;-1.514;2023-01-13T09:04:14;2.60;;;0.60;;
21103;SDS011;10710;53.398;-1.514;2023-01-13T09:06:43;1.65;;;0.70;;
21103;SDS011;10710;53.398;-1.514;2023-01-13T09:09:13;5.82;;;1.20;;
21103;SDS011;10710;53.398;-1.514;2023-01-13T09:11:44;1.48;;;0.52;;
21103;SDS011;10710;53.398;-1.514;2023-01-13T09:14:32;1.30;;;0.60;;
21103;SDS011;10710;53.398;-1.514;2023-01-13T09:17:00;4.90;;;1.23;;
21103;SDS011;10710;53.398;-1.514;2023-01-13T09:19:27;4.90;;;1.00;;
21103;SDS011;10710;53.398;-1.514;2023-01-13T09:21:55;3.42;;;0.73;;
21103;SDS011;10710;53.398;-1.514;2023-01-13T09:24:22;6.97;;;1.35;;
21103;SDS011;10710;53.398;-1.514;2023-01-13T09:26:48;9.00;;;1.30;;
21103;SDS011;10710;53.398;-1.514;2023-01-13T09:29:14;11.40;;;1.30;;
21103;SDS011;10710;53.398;-1.514;2023-01-13T09:31:41;6.15;;;0.68;;
21103;SDS011;10710;53.398;-1.514;2023-01-13T09:34:09;3.23;;;0.60;;
21103;SDS011;10710;53.398;-1.514;2023-01-13T09:36:58;11.65;;;1.65;;
21103;SDS011;10710;53.398;-1.514;2023-01-13T09:39:24;6.70;;;1.63;;
21103;SDS011;10710;53.398;-1.514;2023-01-13T09:41:51;5.85;;;0.93;;
21103;SDS011;10710;53.398;-1.514;2023-01-13T09:44:41;3.95;;;1.00;;
21103;SDS011;10710;53.398;-1.514;2023-01-13T09:47:23;1.90;;;0.65;;
21103;SDS011;10710;53.398;-1.514;2023-01-13T09:49:53;4.03;;;1.17;;
21103;SDS011;10710;53.398;-1.514;2023-01-13T09:52:27;3.22;;;0.82;;
21103;SDS011;10710;53.398;-1.514;2023-01-13T09:54:58;3.75;;;0.85;;
21103;SDS011;10710;53.398;-1.514;2023-01-13T09:57:25;1.27;;;0.50;;
21103;SDS011;10710;53.398;-1.514;2023-01-13T09:59:53;1.25;;;0.50;;
21103;SDS011;10710;53.398;-1.514;2023-01-13T10:05:15;8.10;;;1.10;;
21103;SDS011;10710;53.398;-1.514;2023-01-13T10:07:54;6.53;;;0.88;;
21103;SDS011;10710;53.398;-1.514;2023-01-13T10:13:07;6.50;;;0.80;;
21103;SDS011;10710;53.398;-1.514;2023-01-13T10:16:30;3.63;;;0.80;;
21103;SDS011;10710;53.398;-1.514;2023-01-13T10:18:38;0.80;;;0.50;;
21103;SDS011;10710;53.398;-1.514;2023-01-13T10:28:51;4.68;;;1.27;;
21103;SDS011;10710;53.398;-1.514;2023-01-13T10:31:19;7.78;;;1.00;;
21103;SDS011;10710;53.398;-1.514;2023-01-13T10:33:46;2.00;;;0.70;;
21103;SDS011;10710;53.398;-1.514;2023-01-13T10:36:14;3.30;;;0.85;;
21103;SDS011;10710;53.398;-1.514;2023-01-13T10:38:42;6.65;;;0.82;;
21103;SDS011;10710;53.398;-1.514;2023-01-13T10:46:50;3.25;;;1.08;;
21103;SDS011;10710;53.398;-1.514;2023-01-13T10:49:41;3.63;;;1.07;;
21103;SDS011;10710;53.398;-1.514;2023-01-13T10:52:26;4.15;;;0.80;;
21103;SDS011;10710;53.398;-1.514;2023-01-13T10:54:56;2.38;;;0.65;;
21103;SDS011;10710;53.398;-1.514;2023-01-13T10:57:24;1.30;;;0.80;;
21103;SDS011;10710;53.398;-1.514;2023-01-13T10:59:51;2.78;;;0.57;;
21103;SDS011;10710;53.398;-1.514;2023-01-13T11:04:58;2.25;;;0.82;;
21103;SDS011;10710;53.398;-1.514;2023-01-13T11:07:45;4.10;;;0.82;;
21103;SDS011;10710;53.398;-1.514;2023-01-13T11:12:55;2.42;;;0.90;;
21103;SDS011;10710;53.398;-1.514;2023-01-13T11:18:12;3.20;;;0.90;;
21103;SDS011;10710;53.398;-1.514;2023-01-13T11:20:43;1.60;;;0.77;;
21103;SDS011;10710;53.398;-1.514;2023-01-13T11:25:43;5.40;;;1.17;;
21103;SDS011;10710;53.398;-1.514;2023-01-13T11:33:50;2.08;;;1.33;;
21103;SDS011;10710;53.398;-1.514;2023-01-13T11:36:35;0.77;;;0.50;;
21103;SDS011;10710;53.398;-1.514;2023-01-13T11:39:13;3.47;;;0.80;;
21103;SDS011;10710;53.398;-1.514;2023-01-13T11:47:44;2.17;;;1.00;;
21103;SDS011;10710;53.398;-1.514;2023-01-13T12:04:04;1.70;;;0.50;;
21103;SDS011;10710;53.398;-1.514;2023-01-13T12:07:17;1.63;;;0.70;;
21103;SDS011;10710;53.398;-1.514;2023-01-13T12:10:07;2.00;;;0.63;;
21103;SDS011;10710;53.398;-1.514;2023-01-13T12:16:00;0.83;;;0.57;;
21103;SDS011;10710;53.398;-1.514;2023-01-13T12:21:25;2.17;;;0.47;;
21103;SDS011;10710;53.398;-1.514;2023-01-13T12:26:40;5.22;;;0.75;;
21103;SDS011;10710;53.398;-1.514;2023-01-13T12:29:11;2.15;;;0.70;;
21103;SDS011;10710;53.398;-1.514;2023-01-13T12:31:42;1.50;;;0.70;;
21103;SDS011;10710;53.398;-1.514;2023-01-13T12:42:38;4.00;;;0.98;;
21103;SDS011;10710;53.398;-1.514;2023-01-13T12:45:38;1.83;;;0.47;;
21103;SDS011;10710;53.398;-1.514;2023-01-13T12:48:04;1.75;;;0.30;;
21103;SDS011;10710;53.398;-1.514;2023-01-13T12:52:59;2.10;;;0.60;;
21103;SDS011;10710;53.398;-1.514;2023-01-13T12:55:49;2.08;;;0.65;;
21103;SDS011;10710;53.398;-1.514;2023-01-13T12:58:16;0.50;;;0.25;;
21103;SDS011;10710;53.398;-1.514;2023-01-13T13:00:52;2.70;;;0.88;;
21103;SDS011;10710;53.398;-1.514;2023-01-13T13:03:35;2.85;;;0.93;;
21103;SDS011;10710;53.398;-1.514;2023-01-13T13:08:49;0.88;;;0.68;;
21103;SDS011;10710;53.398;-1.514;2023-01-13T13:19:52;4.93;;;1.13;;
21103;SDS011;10710;53.398;-1.514;2023-01-13T13:30:29;5.75;;;0.55;;
21103;SDS011;10710;53.398;-1.514;2023-01-13T13:41:36;2.88;;;0.90;;
21103;SDS011;10710;53.398;-1.514;2023-01-13T13:44:30;4.30;;;0.80;;
21103;SDS011;10710;53.398;-1.514;2023-01-13T13:47:18;3.83;;;0.60;;
21103;SDS011;10710;53.398;-1.514;2023-01-13T13:49:44;6.18;;;1.00;;
21103;SDS011;10710;53.398;-1.514;2023-01-13T13:55:08;4.53;;;1.35;;
21103;SDS011;10710;53.398;-1.514;2023-01-13T13:57:50;3.47;;;0.90;;
21103;SDS011;10710;53.398;-1.514;2023-01-13T14:00:25;5.03;;;1.25;;
21103;SDS011;10710;53.398;-1.514;2023-01-13T14:03:14;7.47;;;1.30;;
21103;SDS011;10710;53.398;-1.514;2023-01-13T14:05:54;8.98;;;1.10;;
21103;SDS011;10710;53.398;-1.514;2023-01-13T14:08:22;5.28;;;0.70;;
21103;SDS011;10710;53.398;-1.514;2023-01-13T14:10:50;6.03;;;1.40;;
21103;SDS011;10710;53.398;-1.514;2023-01-13T14:13:50;13.30;;;1.58;;
21103;SDS011;10710;53.398;-1.514;2023-01-13T14:16:10;3.92;;;1.38;;
21103;SDS011;10710;53.398;-1.514;2023-01-13T14:18:45;9.30;;;1.95;;
21103;SDS011;10710;53.398;-1.514;2023-01-13T14:24:11;12.35;;;1.75;;
21103;SDS011;10710;53.398;-1.514;2023-01-13T14:26:39;6.60;;;1.50;;
21103;SDS011;10710;53.398;-1.514;2023-01-13T14:29:04;9.60;;;1.50;;
21103;SDS011;10710;53.398;-1.514;2023-01-13T14:31:30;11.23;;;1.70;;
21103;SDS011;10710;53.398;-1.514;2023-01-13T14:33:59;7.57;;;1.30;;
21103;SDS011;10710;53.398;-1.514;2023-01-13T14:41:28;9.20;;;1.30;;
21103;SDS011;10710;53.398;-1.514;2023-01-13T14:46:53;6.75;;;1.17;;
21103;SDS011;10710;53.398;-1.514;2023-01-13T14:54:40;5.95;;;0.90;;
21103;SDS011;10710;53.398;-1.514;2023-01-13T14:59:58;3.92;;;0.90;;
21103;SDS011;10710;53.398;-1.514;2023-01-13T15:05:28;7.40;;;1.80;;
21103;SDS011;10710;53.398;-1.514;2023-01-13T15:07:58;9.57;;;2.40;;
21103;SDS011;10710;53.398;-1.514;2023-01-13T15:10:28;4.07;;;1.00;;
21103;SDS011;10710;53.398;-1.514;2023-01-13T15:12:57;7.05;;;1.40;;
21103;SDS011;10710;53.398;-1.514;2023-01-13T15:15:26;9.15;;;1.40;;
21103;SDS011;10710;53.398;-1.514;2023-01-13T15:18:11;10.27;;;1.35;;
21103;SDS011;10710;53.398;-1.514;2023-01-13T15:20:38;7.97;;;1.15;;
21103;SDS011;10710;53.398;-1.514;2023-01-13T15:23:05;6.95;;;1.40;;
21103;SDS011;10710;53.398;-1.514;2023-01-13T15:25:31;9.40;;;1.63;;
21103;SDS011;10710;53.398;-1.514;2023-01-13T15:27:58;4.43;;;1.00;;
21103;SDS011;10710;53.398;-1.514;2023-01-13T15:30:25;8.48;;;1.48;;
21103;SDS011;10710;53.398;-1.514;2023-01-13T15:32:52;10.18;;;1.63;;
21103;SDS011;10710;53.398;-1.514;2023-01-13T15:35:20;8.63;;;1.50;;
21103;SDS011;10710;53.398;-1.514;2023-01-13T15:37:48;8.82;;;1.17;;
21103;SDS011;10710;53.398;-1.514;2023-01-13T15:42:45;8.63;;;1.85;;
21103;SDS011;10710;53.398;-1.514;2023-01-13T15:45:31;9.68;;;2.10;;
21103;SDS011;10710;53.398;-1.514;2023-01-13T15:48:19;9.00;;;1.55;;
21103;SDS011;10710;53.398;-1.514;2023-01-13T15:50:45;7.78;;;1.83;;
21103;SDS011;10710;53.398;-1.514;2023-01-13T15:53:12;7.70;;;1.20;;
21103;SDS011;10710;53.398;-1.514;2023-01-13T15:55:39;6.00;;;1.40;;
21103;SDS011;10710;53.398;-1.514;2023-01-13T15:58:06;12.60;;;1.43;;
21103;SDS011;10710;53.398;-1.514;2023-01-13T16:00:35;8.52;;;1.20;;
21103;SDS011;10710;53.398;-1.514;2023-01-13T16:03:01;7.80;;;1.80;;
21103;SDS011;10710;53.398;-1.514;2023-01-13T16:05:27;9.07;;;1.42;;
21103;SDS011;10710;53.398;-1.514;2023-01-13T16:07:53;8.48;;;2.42;;
21103;SDS011;10710;53.398;-1.514;2023-01-13T16:10:20;9.38;;;1.48;;
21103;SDS011;10710;53.398;-1.514;2023-01-13T16:12:50;5.75;;;1.77;;
21103;SDS011;10710;53.398;-1.514;2023-01-13T16:15:17;4.80;;;1.42;;
21103;SDS011;10710;53.398;-1.514;2023-01-13T16:17:50;9.60;;;1.33;;
21103;SDS011;10710;53.398;-1.514;2023-01-13T16:20:23;8.80;;;1.42;;
21103;SDS011;10710;53.398;-1.514;2023-01-13T16:22:49;10.10;;;1.38;;
21103;SDS011;10710;53.398;-1.514;2023-01-13T16:25:16;4.47;;;2.23;;
21103;SDS011;10710;53.398;-1.514;2023-01-13T16:27:45;9.13;;;1.33;;
21103;SDS011;10710;53.398;-1.514;2023-01-13T16:30:20;11.07;;;2.83;;
21103;SDS011;10710;53.398;-1.514;2023-01-13T16:32:49;9.82;;;2.35;;
21103;SDS011;10710;53.398;-1.514;2023-01-13T16:35:15;13.75;;;3.55;;
21103;SDS011;10710;53.398;-1.514;2023-01-13T16:37:43;10.02;;;3.00;;
21103;SDS011;10710;53.398;-1.514;2023-01-13T16:40:18;9.30;;;1.40;;
21103;SDS011;10710;53.398;-1.514;2023-01-13T16:42:50;16.98;;;4.13;;
21103;SDS011;10710;53.398;-1.514;2023-01-13T16:45:16;11.30;;;2.20;;
21103;SDS011;10710;53.398;-1.514;2023-01-13T16:47:43;10.18;;;2.63;;
21103;SDS011;10710;53.398;-1.514;2023-01-13T16:52:57;8.63;;;2.03;;
21103;SDS011;10710;53.398;-1.514;2023-01-13T16:55:23;10.50;;;1.90;;
21103;SDS011;10710;53.398;-1.514;2023-01-13T16:57:49;10.95;;;2.22;;
21103;SDS011;10710;53.398;-1.514;2023-01-13T17:00:15;8.10;;;2.05;;
21103;SDS011;10710;53.398;-1.514;2023-01-13T17:02:41;14.18;;;2.33;;
21103;SDS011;10710;53.398;-1.514;2023-01-13T17:05:09;12.03;;;1.97;;
21103;SDS011;10710;53.398;-1.514;2023-01-13T17:07:41;12.45;;;3.58;;
21103;SDS011;10710;53.398;-1.514;2023-01-13T17:10:12;12.95;;;2.70;;
21103;SDS011;10710;53.398;-1.514;2023-01-13T17:12:40;11.07;;;2.53;;
21103;SDS011;10710;53.398;-1.514;2023-01-13T17:15:06;15.63;;;2.72;;
21103;SDS011;10710;53.398;-1.514;2023-01-13T17:17:34;9.32;;;2.53;;
21103;SDS011;10710;53.398;-1.514;2023-01-13T17:19:59;12.20;;;3.00;;
21103;SDS011;10710;53.398;-1.514;2023-01-13T17:22:25;14.57;;;2.80;;
21103;SDS011;10710;53.398;-1.514;2023-01-13T17:24:51;12.30;;;2.80;;
21103;SDS011;10710;53.398;-1.514;2023-01-13T17:27:17;9.90;;;2.47;;
21103;SDS011;10710;53.398;-1.514;2023-01-13T17:29:45;11.18;;;2.00;;
21103;SDS011;10710;53.398;-1.514;2023-01-13T17:32:18;12.63;;;3.17;;
21103;SDS011;10710;53.398;-1.514;2023-01-13T17:34:44;13.23;;;2.35;;
21103;SDS011;10710;53.398;-1.514;2023-01-13T17:37:11;26.02;;;2.80;;
21103;SDS011;10710;53.398;-1.514;2023-01-13T17:39:38;8.88;;;2.22;;
21103;SDS011;10710;53.398;-1.514;2023-01-13T17:42:06;15.88;;;4.28;;
21103;SDS011;10710;53.398;-1.514;2023-01-13T17:44:32;11.20;;;2.47;;